This is the latest recevied weather packets stored in our database for station/object G0AMO. If no packets are shown the sender has not sent any weather packets the latest 10 day(s).
| Time | Temp. | Humidity | Pressure | Rain* | Wind** | Luminosity | Snow |
|---|---|---|---|---|---|---|---|
| 1778099104 | 8.89° C | 72% | 1014.6 hPa | 0 mm | - | 0 W/m² | - |
| 1778098504 | 9.44° C | 71% | 1015.6 hPa | 0 mm | - | 0 W/m² | - |
| 1778097605 | 10° C | 69% | 1014.6 hPa | 0 mm | - | 0 W/m² | - |
| 1778094604 | 11.11° C | 63% | 1014.2 hPa | 0 mm | - | 0 W/m² | - |
| 1778091905 | 12.22° C | 58% | 1014.6 hPa | 0 mm | - | 0 W/m² | - |
| 1778091305 | 12.78° C | 58% | 1014.6 hPa | 0 mm | - | 0 W/m² | - |
| 1778089504 | 12.78° C | 57% | 1014.2 hPa | 0 mm | - | 133 W/m² | - |
| 1778085305 | 13.33° C | 54% | 1013.2 hPa | 0 mm | - | 423 W/m² | - |
| 1778084704 | 13.33° C | 53% | 1013.2 hPa | 0 mm | - | 468 W/m² | - |
| 1778082904 | 13.89° C | 50% | 1013.9 hPa | 0 mm | - | 608 W/m² | - |
| 1778080504 | 13.89° C | 50% | 1013.5 hPa | 0 mm | - | 789 W/m² | - |
| 1778077504 | 13.89° C | 48% | 1014.2 hPa | 0 mm | - | 990 W/m² | - |
| 1778076305 | 13.89° C | 52% | 1014.2 hPa | 0 mm | - | 1056 W/m² | - |
| 1778076006 | 13.89° C | 51% | 1014.2 hPa | 0 mm | - | 1071 W/m² | - |
| 1778057704 | 10° C | 71% | 1015.2 hPa | 0 mm | - | 594 W/m² | - |
| 1778056805 | 10° C | 73% | 1014.6 hPa | 0 mm | - | 524 W/m² | - |
| 1778056504 | 10° C | 72% | 1014.6 hPa | 0 mm | - | 501 W/m² | - |
| 1778054104 | 8.89° C | 78% | 1014.2 hPa | 0 mm | - | 321 W/m² | - |
| 1778053506 | 8.33° C | 78% | 1014.6 hPa | 0 mm | - | 278 W/m² | - |
| 1778052004 | 7.78° C | 78% | 1013.9 hPa | 0 mm | - | 177 W/m² | - |
| 1778051104 | 7.78° C | 80% | 1013.9 hPa | 0 mm | - | 122 W/m² | - |
| 1778048104 | 7.22° C | 82% | 1014.6 hPa | 0 mm | - | 33 W/m² | - |
| 1778047804 | 7.22° C | 82% | 1014.6 hPa | 0 mm | - | 22 W/m² | - |
| 1778044804 | 7.78° C | 84% | 1014.2 hPa | 0 mm | - | 0 W/m² | - |
| 1778044504 | 7.78° C | 83% | 1014.2 hPa | 0 mm | - | 0 W/m² | - |
* Rain latest hour (hover to see other rain measurements)
** Current wind speed in m/s (hover to see current wind gust speed)